createdAt,value
2022-08-17T00:00:49.208Z,23.43
2022-08-17T00:02:26.651Z,21.47
2022-08-17T00:03:51.308Z,23.83
2022-08-17T00:05:16.088Z,22.90
2022-08-17T00:06:38.124Z,23.73
2022-08-17T00:08:00.362Z,23.97
2022-08-17T00:09:22.444Z,25.83
2022-08-17T00:10:46.337Z,23.17
2022-08-17T00:12:34.982Z,22.40
2022-08-17T00:13:56.029Z,25.53
2022-08-17T00:15:21.092Z,20.47
2022-08-17T00:16:52.589Z,21.07
2022-08-17T00:18:58.115Z,23.87
2022-08-17T00:20:01.972Z,20.20
2022-08-17T00:21:25.256Z,22.43
2022-08-17T00:22:47.794Z,23.97
2022-08-17T00:24:10.070Z,30.07
2022-08-17T00:25:32.257Z,25.73
2022-08-17T00:26:54.413Z,27.70
2022-08-17T00:28:17.154Z,25.10
2022-08-17T00:29:39.371Z,26.90
2022-08-17T00:31:01.971Z,25.87
2022-08-17T00:33:11.986Z,27.63
2022-08-17T00:34:08.739Z,29.50
2022-08-17T00:35:30.952Z,28.87
2022-08-17T00:36:53.111Z,30.80
2022-08-17T00:38:15.880Z,33.40
2022-08-17T00:39:38.165Z,33.33
2022-08-17T00:41:07.030Z,33.70
2022-08-17T00:42:31.272Z,32.20
2022-08-17T00:44:00.090Z,40.47
2022-08-17T00:45:23.140Z,38.87
2022-08-17T00:46:45.349Z,33.20
2022-08-17T00:48:11.534Z,34.50
2022-08-17T00:49:49.809Z,30.50
2022-08-17T00:51:32.088Z,34.13
2022-08-17T00:52:56.386Z,28.70
2022-08-17T00:54:23.962Z,32.60
2022-08-17T00:55:46.810Z,28.10
2022-08-17T00:57:18.370Z,31.13
2022-08-17T00:58:41.090Z,30.10
2022-08-17T01:00:15.952Z,40.37
2022-08-17T01:02:45.870Z,32.77
2022-08-17T01:04:08.679Z,36.33
2022-08-17T01:05:33.133Z,30.80
2022-08-17T01:06:56.621Z,33.67
2022-08-17T01:08:23.368Z,29.90
2022-08-17T01:09:45.584Z,32.87
2022-08-17T01:11:08.418Z,27.30
2022-08-17T01:12:31.382Z,30.63
2022-08-17T01:13:53.912Z,30.50
2022-08-17T01:15:16.732Z,28.73
2022-08-17T01:16:39.505Z,29.83
2022-08-17T01:18:01.878Z,30.40
2022-08-17T01:19:29.111Z,24.40
2022-08-17T01:20:53.811Z,30.27
2022-08-17T01:22:22.300Z,30.10
2022-08-17T01:23:44.379Z,31.13
2022-08-17T01:25:08.911Z,29.70
2022-08-17T01:26:35.780Z,34.77
2022-08-17T01:27:57.958Z,30.60
2022-08-17T01:29:21.654Z,34.40
2022-08-17T01:30:58.596Z,35.33
2022-08-17T01:32:21.696Z,31.53
2022-08-17T01:33:43.776Z,28.10
2022-08-17T01:35:07.402Z,34.30
2022-08-17T01:36:29.468Z,32.10
2022-08-17T01:37:52.019Z,31.13
2022-08-17T01:39:35.065Z,31.00
2022-08-17T01:41:04.734Z,36.17
2022-08-17T01:42:58.601Z,32.70
2022-08-17T01:44:21.808Z,31.20
2022-08-17T01:45:47.744Z,32.33
2022-08-17T01:47:09.750Z,36.90
2022-08-17T01:48:34.202Z,32.43
2022-08-17T01:49:56.432Z,30.90
2022-08-17T01:51:19.776Z,29.00
2022-08-17T01:52:44.704Z,30.50
2022-08-17T01:54:11.632Z,35.90
2022-08-17T01:55:55.574Z,31.43
2022-08-17T01:57:17.970Z,30.13
2022-08-17T01:58:42.372Z,29.37
2022-08-17T02:00:09.846Z,31.47
2022-08-17T02:01:33.795Z,30.43
2022-08-17T02:02:56.113Z,29.30
2022-08-17T02:04:18.314Z,29.90
2022-08-17T02:05:40.565Z,31.83
2022-08-17T02:07:02.641Z,26.40
2022-08-17T02:08:38.896Z,27.30
2022-08-17T02:10:01.695Z,27.37
2022-08-17T02:11:24.785Z,29.70
2022-08-17T02:12:46.843Z,26.83
2022-08-17T02:14:10.678Z,27.07
2022-08-17T02:15:34.618Z,23.10
2022-08-17T02:16:56.650Z,26.77
2022-08-17T02:18:18.763Z,28.60
2022-08-17T02:19:41.251Z,29.57
2022-08-17T02:21:04.064Z,28.00
2022-08-17T02:22:27.038Z,25.43
2022-08-17T02:23:50.068Z,28.07
2022-08-17T02:25:16.528Z,27.27
2022-08-17T02:26:38.751Z,24.97
2022-08-17T02:28:00.884Z,30.07
2022-08-17T02:29:22.991Z,26.40
2022-08-17T02:31:01.639Z,28.90
2022-08-17T02:32:28.132Z,26.43
2022-08-17T02:34:00.317Z,24.10
2022-08-17T02:35:27.261Z,27.87
2022-08-17T02:36:49.298Z,30.00
2022-08-17T02:38:11.394Z,30.67
2022-08-17T02:39:33.524Z,29.70
2022-08-17T02:40:55.704Z,30.03
2022-08-17T02:42:18.420Z,29.40
2022-08-17T02:43:40.798Z,35.87
2022-08-17T02:45:04.297Z,35.77
2022-08-17T02:46:26.725Z,35.27
2022-08-17T02:47:50.290Z,32.17
2022-08-17T02:49:12.401Z,33.90
2022-08-17T02:50:34.441Z,29.10
2022-08-17T02:51:58.360Z,29.23
2022-08-17T02:53:20.444Z,30.67
2022-08-17T02:54:42.602Z,28.30
2022-08-17T02:56:04.855Z,37.00
2022-08-17T02:57:27.100Z,36.67
2022-08-17T02:58:49.203Z,33.43
2022-08-17T03:00:19.108Z,31.40
2022-08-17T03:01:41.296Z,27.60
2022-08-17T03:03:06.057Z,29.23
2022-08-17T03:04:28.163Z,31.93
2022-08-17T03:05:51.420Z,29.10
2022-08-17T03:07:13.575Z,28.07
2022-08-17T03:08:37.370Z,26.60
2022-08-17T03:09:59.488Z,27.90
2022-08-17T03:11:21.989Z,30.40
2022-08-17T03:12:46.758Z,36.20
2022-08-17T03:14:08.915Z,27.33
2022-08-17T03:15:33.639Z,25.63
2022-08-17T03:16:55.699Z,27.03
2022-08-17T03:18:25.002Z,31.50
2022-08-17T03:19:48.179Z,31.20
2022-08-17T03:21:10.497Z,29.07
2022-08-17T03:22:53.094Z,31.13
2022-08-17T03:24:15.719Z,33.33
2022-08-17T03:25:43.482Z,35.90
2022-08-17T03:27:06.201Z,31.97
2022-08-17T03:28:28.272Z,37.53
2022-08-17T03:29:50.341Z,35.83
2022-08-17T03:31:12.461Z,33.37
2022-08-17T03:32:46.921Z,35.83
2022-08-17T03:34:09.047Z,34.80
2022-08-17T03:35:34.958Z,34.00
2022-08-17T03:36:58.917Z,29.83
2022-08-17T03:38:22.007Z,29.83
2022-08-17T03:39:45.404Z,33.23
2022-08-17T03:41:08.013Z,38.33
2022-08-17T03:42:31.804Z,32.13
2022-08-17T03:43:54.652Z,31.17
2022-08-17T03:45:39.194Z,34.63
2022-08-17T03:47:20.066Z,30.33
2022-08-17T03:49:00.844Z,31.07
2022-08-17T03:50:41.686Z,33.43
2022-08-17T03:52:22.697Z,31.23
2022-08-17T03:54:12.513Z,29.83
2022-08-17T03:55:53.731Z,30.77
2022-08-17T03:57:16.626Z,39.43
2022-08-17T03:58:39.025Z,34.00
2022-08-17T04:00:01.120Z,31.17
2022-08-17T04:01:23.392Z,32.83
2022-08-17T04:02:45.571Z,30.13
2022-08-17T04:04:07.690Z,32.70
2022-08-17T04:05:30.294Z,30.40
2022-08-17T04:06:56.667Z,30.67
2022-08-17T04:08:19.053Z,28.90
2022-08-17T04:09:42.860Z,28.30
2022-08-17T04:11:05.068Z,26.73
2022-08-17T04:12:30.954Z,27.47
2022-08-17T04:13:53.404Z,34.60
2022-08-17T04:15:16.605Z,30.63
2022-08-17T04:16:39.196Z,26.97
2022-08-17T04:18:01.259Z,30.40
2022-08-17T04:19:25.365Z,30.97
2022-08-17T04:20:47.902Z,31.43
2022-08-17T04:22:10.002Z,31.40
2022-08-17T04:23:52.453Z,30.50
2022-08-17T04:25:17.531Z,28.93
2022-08-17T04:26:54.071Z,29.10
2022-08-17T04:28:19.575Z,29.00
2022-08-17T04:29:55.055Z,27.17
2022-08-17T04:31:18.135Z,21.30
2022-08-17T04:33:06.380Z,23.13
2022-08-17T04:34:29.187Z,18.00
2022-08-17T04:35:58.345Z,19.67
2022-08-17T04:37:20.483Z,17.93
2022-08-17T04:38:45.036Z,23.13
2022-08-17T04:40:27.469Z,16.67
2022-08-17T04:42:09.190Z,17.90
2022-08-17T04:43:33.596Z,18.27
2022-08-17T04:44:55.664Z,18.20
2022-08-17T04:46:20.404Z,16.43
2022-08-17T04:47:42.426Z,16.53
2022-08-17T04:49:10.980Z,20.53
2022-08-17T04:50:35.282Z,17.17
2022-08-17T04:52:00.081Z,26.83
2022-08-17T04:53:27.076Z,19.50
2022-08-17T04:54:49.131Z,17.20
2022-08-17T04:56:16.725Z,20.53
2022-08-17T04:57:44.563Z,18.63
2022-08-17T04:59:18.806Z,19.33
2022-08-17T05:00:40.921Z,22.03
2022-08-17T05:02:03.113Z,23.10
2022-08-17T05:03:25.164Z,20.77
2022-08-17T05:04:47.219Z,19.80
2022-08-17T05:06:09.605Z,30.77
2022-08-17T05:07:31.808Z,21.83
2022-08-17T05:08:54.676Z,23.10
2022-08-17T05:10:17.282Z,24.57
2022-08-17T05:11:39.911Z,23.77
2022-08-17T05:13:09.010Z,27.37
2022-08-17T05:14:33.776Z,21.80
2022-08-17T05:16:00.900Z,34.00
2022-08-17T05:17:23.010Z,26.13
2022-08-17T05:18:45.633Z,24.03
2022-08-17T05:20:08.258Z,22.70
2022-08-17T05:21:30.377Z,28.00
2022-08-17T05:22:56.119Z,28.47
2022-08-17T05:24:40.765Z,20.67
2022-08-17T05:26:00.423Z,20.20
2022-08-17T05:27:24.259Z,23.43
2022-08-17T05:28:50.039Z,24.40
2022-08-17T05:30:14.556Z,24.67
2022-08-17T05:31:36.663Z,23.20
2022-08-17T05:33:03.330Z,22.23
2022-08-17T05:34:25.379Z,21.20
2022-08-17T05:35:50.717Z,23.57
2022-08-17T05:37:12.940Z,24.07
2022-08-17T05:38:35.706Z,23.40
2022-08-17T05:39:57.901Z,22.17
2022-08-17T05:41:20.138Z,20.43
2022-08-17T05:42:42.284Z,21.80
2022-08-17T05:44:05.544Z,19.67
2022-08-17T05:45:54.251Z,21.43
2022-08-17T05:47:09.994Z,23.70
2022-08-17T05:48:40.079Z,21.37
2022-08-17T05:50:02.909Z,21.07
2022-08-17T05:51:59.683Z,22.07
2022-08-17T05:53:38.360Z,20.07
2022-08-17T05:55:14.649Z,22.80
2022-08-17T05:56:54.991Z,17.17
2022-08-17T05:58:31.234Z,17.10
2022-08-17T06:00:30.342Z,19.63
2022-08-17T06:02:20.888Z,17.63
2022-08-17T06:03:48.685Z,18.20
2022-08-17T06:05:31.299Z,16.40
2022-08-17T06:07:02.722Z,18.13
2022-08-17T06:08:53.406Z,17.77
2022-08-17T06:10:32.239Z,20.23
2022-08-17T06:12:18.878Z,17.70
2022-08-17T06:14:05.291Z,15.60
2022-08-17T06:15:32.599Z,20.10
2022-08-17T06:17:04.395Z,15.90
2022-08-17T06:18:31.415Z,21.37
2022-08-17T06:20:16.064Z,17.10
2022-08-17T06:21:42.624Z,19.27
2022-08-17T06:23:14.371Z,20.57
2022-08-17T06:24:44.436Z,17.87
2022-08-17T06:26:17.358Z,21.33
2022-08-17T06:27:42.271Z,19.80
2022-08-17T06:29:08.897Z,18.70
2022-08-17T06:31:00.055Z,22.37
2022-08-17T06:32:23.551Z,19.60
2022-08-17T06:33:47.467Z,21.50
2022-08-17T06:35:13.027Z,23.33
2022-08-17T06:36:44.856Z,19.90
2022-08-17T06:38:38.474Z,24.77
2022-08-17T06:40:22.170Z,25.67
2022-08-17T06:42:54.929Z,24.37
2022-08-17T06:44:42.189Z,23.23
2022-08-17T06:46:16.217Z,19.20
2022-08-17T06:47:50.955Z,22.63
2022-08-17T06:49:33.147Z,24.73
2022-08-17T06:51:04.154Z,20.70
2022-08-17T06:52:45.402Z,24.33
2022-08-17T06:54:18.710Z,19.10
2022-08-17T06:55:51.856Z,21.40
2022-08-17T06:57:22.218Z,18.27
2022-08-17T06:58:45.065Z,23.70
2022-08-17T07:00:23.111Z,18.80
2022-08-17T07:01:47.403Z,17.73
2022-08-17T07:03:29.692Z,13.70
2022-08-17T07:04:52.507Z,15.10
2022-08-17T07:06:24.465Z,14.23
2022-08-17T07:08:17.018Z,12.97
2022-08-17T07:09:39.415Z,14.17
2022-08-17T07:11:07.118Z,15.40
2022-08-17T07:12:34.145Z,15.07
2022-08-17T07:13:57.077Z,15.63
2022-08-17T07:15:23.399Z,10.93
2022-08-17T07:16:51.256Z,12.07
2022-08-17T07:18:13.845Z,12.03
2022-08-17T07:19:40.533Z,12.53
2022-08-17T07:21:08.655Z,10.77
2022-08-17T07:22:53.570Z,10.30
2022-08-17T07:24:30.798Z,11.93
2022-08-17T07:25:53.541Z,10.40
2022-08-17T07:27:25.250Z,12.47
2022-08-17T07:28:47.887Z,11.67
2022-08-17T07:30:14.515Z,11.03
2022-08-17T07:31:37.278Z,9.90
2022-08-17T07:33:08.384Z,12.50
2022-08-17T07:34:54.377Z,9.03
2022-08-17T07:36:30.111Z,11.20
2022-08-17T07:38:24.691Z,11.10
2022-08-17T07:40:14.880Z,10.30
2022-08-17T07:41:53.341Z,13.00
2022-08-17T07:43:23.384Z,13.27
2022-08-17T07:44:54.353Z,9.87
2022-08-17T07:46:54.591Z,13.60
2022-08-17T07:48:20.512Z,7.40
2022-08-17T07:49:46.419Z,8.67
2022-08-17T07:51:16.317Z,9.27
2022-08-17T07:52:51.440Z,8.93
2022-08-17T07:54:23.964Z,9.80
2022-08-17T07:55:46.343Z,9.10
2022-08-17T07:57:13.273Z,8.03
2022-08-17T07:58:35.473Z,7.63
2022-08-17T08:00:01.489Z,9.87
2022-08-17T08:01:23.908Z,9.40
2022-08-17T08:03:11.707Z,10.10
2022-08-17T08:06:26.342Z,7.83
2022-08-17T08:07:49.566Z,7.13
2022-08-17T08:09:34.339Z,10.63
2022-08-17T08:11:12.626Z,8.37
2022-08-17T08:12:44.848Z,9.23
2022-08-17T08:14:29.571Z,9.93
2022-08-17T08:15:54.949Z,9.27
2022-08-17T08:17:27.829Z,11.00
2022-08-17T08:18:55.852Z,9.37
2022-08-17T08:20:50.924Z,10.50
2022-08-17T08:22:07.649Z,7.20
2022-08-17T08:23:33.367Z,9.97
2022-08-17T08:25:36.379Z,10.30
2022-08-17T08:27:21.814Z,8.20
2022-08-17T08:28:49.460Z,8.03
2022-08-17T08:30:21.246Z,7.03
2022-08-17T08:31:43.764Z,6.43
2022-08-17T08:33:29.433Z,8.27
2022-08-17T08:35:09.269Z,9.93
2022-08-17T08:37:02.030Z,9.83
2022-08-17T08:38:29.257Z,9.20
2022-08-17T08:40:11.047Z,9.87
2022-08-17T08:41:33.579Z,6.80
2022-08-17T08:42:56.481Z,8.03
2022-08-17T08:45:04.254Z,8.73
2022-08-17T08:46:35.357Z,7.10
2022-08-17T08:48:58.033Z,7.13
2022-08-17T08:50:38.608Z,10.80
2022-08-17T08:52:04.238Z,7.53
2022-08-17T08:53:37.738Z,7.07
2022-08-17T08:55:25.151Z,8.30
2022-08-17T08:58:56.921Z,7.37
2022-08-17T09:00:23.774Z,8.10
2022-08-17T09:01:58.268Z,6.50
2022-08-17T09:03:52.295Z,8.07
2022-08-17T09:05:22.125Z,7.00
2022-08-17T09:06:57.998Z,10.83
2022-08-17T09:08:25.977Z,6.13
2022-08-17T09:10:03.811Z,6.90
2022-08-17T09:11:32.277Z,8.03
2022-08-17T09:13:09.326Z,10.33
2022-08-17T09:14:45.029Z,6.33
2022-08-17T09:16:15.303Z,7.20
2022-08-17T09:17:47.325Z,9.60
2022-08-17T09:19:19.401Z,5.90
2022-08-17T09:20:50.364Z,7.10
2022-08-17T09:22:19.194Z,10.80
2022-08-17T09:23:49.457Z,8.80
2022-08-17T09:25:14.974Z,6.43
2022-08-17T09:26:40.664Z,7.73
2022-08-17T09:28:06.403Z,9.83
2022-08-17T09:29:35.104Z,8.33
2022-08-17T09:31:02.456Z,11.77
2022-08-17T09:32:28.971Z,5.60
2022-08-17T09:33:51.557Z,8.50
2022-08-17T09:35:22.845Z,7.43
2022-08-17T09:37:01.342Z,8.00
2022-08-17T09:39:00.259Z,8.10
2022-08-17T09:41:01.558Z,8.33
2022-08-17T09:42:44.650Z,6.47
2022-08-17T09:44:26.226Z,7.90
2022-08-17T09:46:02.669Z,8.90
2022-08-17T09:47:42.094Z,8.63
2022-08-17T09:49:25.439Z,7.63
2022-08-17T09:50:55.500Z,7.00
2022-08-17T09:52:30.360Z,6.77
2022-08-17T09:53:52.579Z,8.70
2022-08-17T09:55:14.729Z,7.17
2022-08-17T09:57:00.909Z,9.00
2022-08-17T09:58:56.367Z,8.53
2022-08-17T10:00:29.038Z,10.83
2022-08-17T10:01:57.437Z,8.53
2022-08-17T10:03:32.420Z,10.43
2022-08-17T10:05:13.585Z,8.30
2022-08-17T10:06:57.636Z,6.53
2022-08-17T10:08:22.982Z,7.10
2022-08-17T10:10:03.881Z,7.20
2022-08-17T10:11:53.743Z,7.00
2022-08-17T10:13:53.331Z,7.63
2022-08-17T10:15:29.136Z,7.97
2022-08-17T10:16:58.453Z,9.50
2022-08-17T10:19:10.902Z,7.20
2022-08-17T10:21:19.718Z,13.53
2022-08-17T10:23:20.740Z,8.80
2022-08-17T10:25:23.960Z,7.57
2022-08-17T10:26:57.036Z,10.23
2022-08-17T10:28:28.843Z,18.53
2022-08-17T10:29:59.851Z,8.50
2022-08-17T10:31:35.772Z,7.27
2022-08-17T10:33:05.112Z,8.17
2022-08-17T10:34:42.251Z,9.53
2022-08-17T10:36:23.248Z,7.80
2022-08-17T10:38:14.658Z,7.80
2022-08-17T10:39:52.483Z,9.40
2022-08-17T10:41:24.703Z,6.57
2022-08-17T10:42:56.088Z,8.07
2022-08-17T10:44:40.272Z,7.17
2022-08-17T10:46:30.863Z,7.73
2022-08-17T10:48:06.358Z,8.50
2022-08-17T10:49:33.877Z,7.33
2022-08-17T10:50:55.911Z,6.50
2022-08-17T10:52:20.768Z,8.03
2022-08-17T10:53:43.441Z,9.03
2022-08-17T10:55:14.153Z,9.03
2022-08-17T10:56:50.465Z,6.83
2022-08-17T10:58:21.953Z,8.67
2022-08-17T10:59:44.049Z,7.50
2022-08-17T11:01:11.411Z,10.70
2022-08-17T11:02:49.875Z,8.70
2022-08-17T11:04:18.296Z,8.73
2022-08-17T11:05:44.399Z,7.33
2022-08-17T11:07:51.356Z,8.43
2022-08-17T11:09:47.104Z,7.60
2022-08-17T11:11:43.444Z,6.43
2022-08-17T11:13:21.832Z,7.13
2022-08-17T11:15:15.586Z,6.87
2022-08-17T11:16:59.061Z,10.50
2022-08-17T11:18:28.365Z,7.43
2022-08-17T11:20:09.499Z,7.20
2022-08-17T11:21:57.323Z,8.87
2022-08-17T11:23:22.160Z,10.10
2022-08-17T11:24:51.697Z,8.90
2022-08-17T11:26:30.293Z,7.93
2022-08-17T11:28:22.200Z,10.87
2022-08-17T11:30:03.377Z,9.90
2022-08-17T11:31:40.198Z,7.47
2022-08-17T11:33:29.018Z,9.60
2022-08-17T11:35:12.044Z,10.07
2022-08-17T11:37:01.898Z,7.80
2022-08-17T11:38:51.703Z,10.63
2022-08-17T11:40:28.041Z,6.97
2022-08-17T11:42:10.269Z,10.17
2022-08-17T11:43:45.823Z,7.70
2022-08-17T11:45:42.007Z,7.73
2022-08-17T11:48:16.105Z,7.33
2022-08-17T11:50:15.284Z,8.80
2022-08-17T11:52:01.580Z,9.00
2022-08-17T11:53:39.270Z,10.20
2022-08-17T11:55:24.078Z,7.17
2022-08-17T11:56:45.791Z,9.93
2022-08-17T11:58:26.121Z,12.50
2022-08-17T11:59:48.246Z,7.00
2022-08-17T12:01:33.197Z,9.50
2022-08-17T12:03:31.847Z,7.40
2022-08-17T12:05:19.022Z,9.60
2022-08-17T12:06:54.846Z,6.83
2022-08-17T12:08:21.963Z,6.77
2022-08-17T12:09:49.195Z,8.00
2022-08-17T12:11:18.997Z,9.03
2022-08-17T12:13:10.288Z,8.30
2022-08-17T12:15:07.922Z,7.20
2022-08-17T12:16:20.966Z,5.57
2022-08-17T12:17:55.265Z,8.43
2022-08-17T12:19:21.796Z,6.67
2022-08-17T12:20:47.558Z,9.03
2022-08-17T12:22:32.141Z,9.07
2022-08-17T12:24:23.201Z,7.87
2022-08-17T12:25:51.420Z,5.93
2022-08-17T12:27:47.751Z,7.07
2022-08-17T12:29:17.901Z,7.10
2022-08-17T12:30:56.070Z,8.47
2022-08-17T12:32:20.390Z,10.97
2022-08-17T12:33:47.392Z,6.23
2022-08-17T12:35:22.943Z,6.93
2022-08-17T12:36:46.310Z,7.10
2022-08-17T12:38:32.163Z,9.13
2022-08-17T12:40:16.671Z,8.40
2022-08-17T12:41:41.545Z,14.00
2022-08-17T12:43:20.263Z,5.90
2022-08-17T12:44:50.050Z,7.60
2022-08-17T12:46:17.437Z,10.20
2022-08-17T12:47:41.149Z,9.77
2022-08-17T12:49:19.743Z,7.70
2022-08-17T12:50:45.155Z,7.30
2022-08-17T12:52:26.738Z,6.10
2022-08-17T12:53:54.298Z,6.87
2022-08-17T12:55:23.020Z,7.63
2022-08-17T12:56:48.357Z,7.00
2022-08-17T12:58:14.369Z,8.13
2022-08-17T12:59:41.566Z,5.70
2022-08-17T13:01:11.035Z,9.90
2022-08-17T13:02:59.229Z,7.33
2022-08-17T13:04:26.621Z,7.20
2022-08-17T13:05:56.772Z,6.23
2022-08-17T13:07:35.889Z,6.33
2022-08-17T13:09:11.305Z,8.50
2022-08-17T13:10:37.703Z,6.23
2022-08-17T13:12:03.276Z,7.53
2022-08-17T13:13:32.205Z,6.20
2022-08-17T13:14:54.476Z,6.00
2022-08-17T13:16:23.531Z,8.17
2022-08-17T13:18:00.498Z,6.63
2022-08-17T13:19:29.809Z,6.67
2022-08-17T13:21:02.732Z,7.17
2022-08-17T13:22:27.899Z,6.40
2022-08-17T13:24:03.969Z,12.60
2022-08-17T13:25:27.663Z,7.00
2022-08-17T13:26:51.958Z,8.93
2022-08-17T13:28:29.881Z,14.03
2022-08-17T13:30:05.891Z,7.20
2022-08-17T13:31:28.114Z,6.50
2022-08-17T13:32:50.511Z,7.30
2022-08-17T13:34:25.282Z,6.60
2022-08-17T13:35:49.970Z,7.20
2022-08-17T13:37:28.848Z,9.50
2022-08-17T13:38:51.639Z,7.50
2022-08-17T13:40:13.867Z,9.27
2022-08-17T13:41:37.683Z,8.17
2022-08-17T13:42:59.790Z,8.20
2022-08-17T13:44:37.385Z,8.40
2022-08-17T13:46:10.325Z,7.60
2022-08-17T13:47:34.268Z,10.03
2022-08-17T13:49:11.808Z,7.57
2022-08-17T13:50:38.070Z,6.57
2022-08-17T13:52:00.861Z,8.47
2022-08-17T13:53:31.170Z,9.10
2022-08-17T13:54:55.682Z,5.40
2022-08-17T13:56:38.056Z,6.17
2022-08-17T13:58:04.214Z,6.70
2022-08-17T13:59:55.011Z,9.57
2022-08-17T14:01:43.920Z,6.17
2022-08-17T14:03:06.294Z,6.30
2022-08-17T14:04:34.289Z,6.77
2022-08-17T14:05:56.818Z,7.60
2022-08-17T14:07:19.599Z,7.33
2022-08-17T14:08:41.675Z,8.47
2022-08-17T14:10:09.533Z,8.00
2022-08-17T14:11:31.798Z,6.50
2022-08-17T14:12:54.141Z,6.37
2022-08-17T14:14:17.084Z,8.97
2022-08-17T14:15:56.282Z,6.53
2022-08-17T14:17:19.113Z,5.93
2022-08-17T14:18:56.787Z,6.50
2022-08-17T14:20:21.409Z,8.87
2022-08-17T14:21:46.488Z,6.37
2022-08-17T14:23:08.734Z,12.07
2022-08-17T14:24:33.622Z,5.80
2022-08-17T14:25:55.676Z,9.07
2022-08-17T14:27:19.391Z,6.80
2022-08-17T14:28:43.023Z,6.77
2022-08-17T14:30:17.698Z,10.63
2022-08-17T14:31:40.575Z,8.07
2022-08-17T14:33:05.895Z,11.10
2022-08-17T14:34:28.853Z,6.43
2022-08-17T14:35:52.985Z,10.77
2022-08-17T14:37:16.053Z,7.13
2022-08-17T14:38:38.186Z,6.67
2022-08-17T14:40:05.363Z,7.40
2022-08-17T14:41:27.461Z,6.77
2022-08-17T14:42:49.995Z,11.70
2022-08-17T14:44:13.041Z,6.30
2022-08-17T14:45:35.246Z,13.83
2022-08-17T14:46:57.313Z,6.90
2022-08-17T14:48:19.398Z,8.60
2022-08-17T14:49:42.331Z,7.80
2022-08-17T14:51:05.356Z,8.37
2022-08-17T14:52:27.798Z,6.33
2022-08-17T14:53:50.536Z,7.67
2022-08-17T14:55:13.684Z,8.33
2022-08-17T14:56:37.973Z,6.50
2022-08-17T14:58:00.332Z,7.87
2022-08-17T14:59:22.522Z,9.07
2022-08-17T15:00:44.703Z,7.00
2022-08-17T15:02:06.959Z,7.90
2022-08-17T15:03:29.198Z,7.83
2022-08-17T15:04:51.382Z,9.23
2022-08-17T15:06:14.815Z,6.67
2022-08-17T15:07:38.637Z,9.10
2022-08-17T15:09:01.443Z,7.97
2022-08-17T15:10:25.825Z,8.73
2022-08-17T15:11:48.200Z,9.57
2022-08-17T15:13:20.928Z,8.73
2022-08-17T15:14:43.100Z,7.40
2022-08-17T15:16:05.399Z,8.17
2022-08-17T15:17:44.677Z,7.30
2022-08-17T15:19:08.647Z,6.67
2022-08-17T15:20:30.979Z,9.03
2022-08-17T15:21:53.066Z,9.53
2022-08-17T15:23:18.144Z,6.90
2022-08-17T15:24:40.417Z,11.17
2022-08-17T15:26:02.513Z,7.40
2022-08-17T15:27:32.603Z,7.50
2022-08-17T15:28:56.039Z,8.90
2022-08-17T15:30:18.823Z,12.00
2022-08-17T15:31:41.199Z,7.47
2022-08-17T15:33:03.755Z,8.70
2022-08-17T15:34:25.973Z,8.70
2022-08-17T15:35:52.197Z,6.20
2022-08-17T15:37:14.344Z,6.43
2022-08-17T15:38:39.557Z,8.83
2022-08-17T15:40:01.793Z,9.03
2022-08-17T15:41:24.275Z,8.90
2022-08-17T15:42:46.468Z,7.47
2022-08-17T15:44:08.564Z,7.47
2022-08-17T15:45:30.865Z,6.87
2022-08-17T15:46:52.985Z,7.60
2022-08-17T15:48:15.395Z,6.90
2022-08-17T15:49:40.521Z,6.23
2022-08-17T15:51:02.600Z,8.30
2022-08-17T15:52:26.930Z,8.73
2022-08-17T15:53:51.944Z,8.90
2022-08-17T15:55:15.395Z,9.80
2022-08-17T15:56:39.294Z,7.23
2022-08-17T15:58:01.564Z,7.60
2022-08-17T15:59:23.629Z,7.33
2022-08-17T16:00:52.094Z,11.47
2022-08-17T16:03:14.515Z,8.57
2022-08-17T16:04:06.717Z,8.33
2022-08-17T16:05:31.258Z,8.03
2022-08-17T16:06:53.821Z,10.47
2022-08-17T16:08:20.876Z,14.30
2022-08-17T16:09:44.597Z,8.80
2022-08-17T16:11:08.102Z,7.50
2022-08-17T16:12:30.317Z,10.20
2022-08-17T16:13:54.627Z,9.00
2022-08-17T16:15:19.104Z,6.90
2022-08-17T16:16:41.841Z,10.73
2022-08-17T16:18:05.226Z,8.53
2022-08-17T16:19:27.327Z,8.20
2022-08-17T16:20:50.240Z,8.67
2022-08-17T16:22:14.446Z,9.30
2022-08-17T16:23:36.613Z,11.37
2022-08-17T16:24:59.530Z,9.47
2022-08-17T16:26:23.048Z,11.33
2022-08-17T16:27:47.997Z,10.40
2022-08-17T16:29:10.646Z,10.00
2022-08-17T16:30:33.909Z,10.20
2022-08-17T16:31:57.073Z,9.43
2022-08-17T16:33:19.778Z,11.43
2022-08-17T16:34:43.278Z,7.97
2022-08-17T16:36:08.807Z,7.37
2022-08-17T16:37:30.995Z,7.50
2022-08-17T16:38:57.191Z,7.40
2022-08-17T16:40:19.343Z,11.10
2022-08-17T16:41:47.757Z,10.60
2022-08-17T16:43:10.568Z,7.13
2022-08-17T16:44:32.950Z,7.67
2022-08-17T16:45:55.088Z,8.57
2022-08-17T16:47:19.323Z,9.57
2022-08-17T16:48:41.393Z,9.77
2022-08-17T16:50:08.697Z,7.33
2022-08-17T16:51:31.082Z,7.33
2022-08-17T16:53:02.824Z,8.53
2022-08-17T16:54:25.070Z,9.30
2022-08-17T16:55:48.827Z,5.70
2022-08-17T16:57:12.166Z,7.67
2022-08-17T16:58:34.417Z,8.80
2022-08-17T16:59:56.591Z,7.40
2022-08-17T17:01:19.659Z,9.20
2022-08-17T17:02:49.387Z,7.47
2022-08-17T17:04:15.508Z,7.73
2022-08-17T17:05:57.617Z,8.10
2022-08-17T17:07:46.163Z,12.03
2022-08-17T17:09:16.443Z,8.57
2022-08-17T17:10:48.947Z,8.80
2022-08-17T17:12:16.404Z,8.83
2022-08-17T17:13:47.190Z,11.03
2022-08-17T17:15:10.383Z,8.83
2022-08-17T17:17:02.656Z,8.60
2022-08-17T17:18:55.380Z,10.00
2022-08-17T17:20:25.390Z,7.73
2022-08-17T17:22:14.216Z,11.80
2022-08-17T17:23:56.416Z,12.83
2022-08-17T17:25:40.829Z,9.97
2022-08-17T17:27:26.362Z,7.40
2022-08-17T17:29:05.097Z,8.00
2022-08-17T17:30:39.919Z,8.80
2022-08-17T17:32:20.959Z,8.57
2022-08-17T17:33:48.416Z,13.33
2022-08-17T17:35:25.385Z,9.10
2022-08-17T17:36:55.049Z,6.93
2022-08-17T17:38:23.579Z,9.07
2022-08-17T17:39:55.349Z,9.10
2022-08-17T17:41:26.358Z,7.70
2022-08-17T17:42:53.565Z,11.77
2022-08-17T17:44:20.144Z,7.70
2022-08-17T17:45:48.127Z,9.70
2022-08-17T17:47:11.852Z,8.90
2022-08-17T17:48:34.126Z,9.23
2022-08-17T17:49:56.325Z,7.67
2022-08-17T17:52:09.146Z,13.00
2022-08-17T17:53:45.461Z,8.83
2022-08-17T17:55:22.381Z,7.77
2022-08-17T17:57:04.033Z,9.40
2022-08-17T17:58:52.829Z,12.50
2022-08-17T18:00:21.888Z,9.90
2022-08-17T18:02:05.360Z,9.40
2022-08-17T18:04:04.664Z,10.40
2022-08-17T18:06:16.314Z,9.00
2022-08-17T18:07:47.680Z,8.70
2022-08-17T18:09:21.679Z,9.73
2022-08-17T18:10:57.188Z,14.77
2022-08-17T18:12:54.453Z,9.50
2022-08-17T18:14:25.189Z,8.33
2022-08-17T18:15:51.597Z,7.30
2022-08-17T18:17:14.641Z,8.80
2022-08-17T18:18:44.594Z,8.57
2022-08-17T18:20:07.102Z,10.73
2022-08-17T18:21:38.403Z,11.07
2022-08-17T18:23:00.575Z,9.00
2022-08-17T18:24:34.858Z,7.70
2022-08-17T18:25:58.618Z,10.20
2022-08-17T18:27:23.830Z,8.30
2022-08-17T18:28:51.066Z,9.63
2022-08-17T18:30:13.150Z,10.37
2022-08-17T18:31:35.213Z,8.40
2022-08-17T18:33:24.617Z,10.10
2022-08-17T18:34:49.356Z,9.97
2022-08-17T18:36:13.300Z,10.67
2022-08-17T18:37:46.436Z,10.30
2022-08-17T18:39:28.502Z,10.33
2022-08-17T18:41:23.381Z,9.53
2022-08-17T18:42:56.291Z,9.27
2022-08-17T18:44:18.322Z,10.77
2022-08-17T18:45:47.846Z,9.80
2022-08-17T18:47:36.017Z,8.97
2022-08-17T18:49:02.131Z,8.57
2022-08-17T18:50:39.880Z,9.93
2022-08-17T18:52:23.344Z,13.77
2022-08-17T18:53:45.482Z,9.10
2022-08-17T18:55:29.280Z,10.23
2022-08-17T18:56:59.987Z,8.77
2022-08-17T18:58:25.334Z,8.80
2022-08-17T18:59:48.305Z,9.60
2022-08-17T19:01:21.402Z,9.30
2022-08-17T19:03:09.882Z,11.10
2022-08-17T19:04:54.416Z,9.93
2022-08-17T19:06:21.976Z,11.10
2022-08-17T19:07:46.947Z,9.20
2022-08-17T19:09:34.049Z,9.37
2022-08-17T19:11:04.408Z,11.73
2022-08-17T19:12:30.184Z,9.27
2022-08-17T19:13:57.443Z,11.00
2022-08-17T19:15:30.017Z,11.30
2022-08-17T19:16:57.329Z,10.83
2022-08-17T19:18:25.780Z,10.50
2022-08-17T19:20:17.127Z,10.43
2022-08-17T19:21:47.482Z,10.80
2022-08-17T19:23:21.179Z,11.03
2022-08-17T19:24:47.543Z,10.90
2022-08-17T19:26:54.225Z,11.30
2022-08-17T19:28:22.386Z,13.57
2022-08-17T19:29:56.854Z,11.50
2022-08-17T19:31:26.116Z,11.10
2022-08-17T19:32:48.423Z,11.60
2022-08-17T19:34:17.122Z,13.80
2022-08-17T19:36:08.098Z,10.27
2022-08-17T19:37:58.543Z,13.73
2022-08-17T19:39:38.709Z,12.20
2022-08-17T19:41:03.597Z,11.20
2022-08-17T19:42:37.134Z,12.50
2022-08-17T19:44:11.210Z,10.80
2022-08-17T19:45:37.715Z,10.73
2022-08-17T19:47:10.557Z,10.90
2022-08-17T19:48:51.103Z,10.20
2022-08-17T19:50:41.529Z,12.53
2022-08-17T19:52:14.899Z,10.83